< < Back
Terminal Aerodrome Forecast


Current Version              Previous Versions:   1  2  3  4  5  6  7  8  9  

Terminal Aerodrome Forecast

634
FTUS42 KJAX 271129 AAA
TAFSSI
TAF AMD
KSSI 271129Z 2711/2812 04010KT P6SM BKN015 OVC250
      TEMPO 2712/2714 SCT015
     FM271600 07007KT P6SM SCT015 BKN200
     FM280000 06006KT P6SM SCT040 BKN120 OVC200=

Latest METAR

750
SAUS70 KWBC 271200 RRQ
MTRSSI
METAR KSSI 271153Z AUTO 04006KT 10SM SCT014 19/17 A2978 RMK AO2 SLP085
T01940167 10228 20194 53025


USA.gov is the U.S. government's official web portal to all federal, state and local government web resources and services.